sensor_id;sensor_type;location;lat;lon;timestamp;pressure;altitude;pressure_sealevel;temperature;humidity
33506;BME280;19843;51.040;13.782;2023-04-25T00:00:57;99503.75;;;10.25;70.52
33506;BME280;19843;51.040;13.782;2023-04-25T00:03:24;99498.16;;;10.25;69.93
33506;BME280;19843;51.040;13.782;2023-04-25T00:05:52;99493.06;;;10.27;70.59
33506;BME280;19843;51.040;13.782;2023-04-25T00:08:24;99497.25;;;10.21;71.45
33506;BME280;19843;51.040;13.782;2023-04-25T00:10:52;99490.75;;;9.85;72.33
33506;BME280;19843;51.040;13.782;2023-04-25T00:13:19;99491.56;;;10.01;72.96
33506;BME280;19843;51.040;13.782;2023-04-25T00:15:49;99489.31;;;10.23;70.90
33506;BME280;19843;51.040;13.782;2023-04-25T00:18:16;99488.88;;;10.21;71.23
33506;BME280;19843;51.040;13.782;2023-04-25T00:20:45;99488.53;;;10.22;71.30
33506;BME280;19843;51.040;13.782;2023-04-25T00:23:12;99494.81;;;10.19;72.00
33506;BME280;19843;51.040;13.782;2023-04-25T00:25:43;99494.66;;;10.28;71.82
33506;BME280;19843;51.040;13.782;2023-04-25T00:28:12;99492.84;;;10.04;72.03
33506;BME280;19843;51.040;13.782;2023-04-25T00:30:40;99498.50;;;10.23;72.36
33506;BME280;19843;51.040;13.782;2023-04-25T00:33:09;99503.28;;;10.23;72.63
33506;BME280;19843;51.040;13.782;2023-04-25T00:35:37;99499.59;;;10.03;72.57
33506;BME280;19843;51.040;13.782;2023-04-25T00:38:05;99502.00;;;10.05;73.35
33506;BME280;19843;51.040;13.782;2023-04-25T00:40:32;99501.47;;;9.83;74.47
33506;BME280;19843;51.040;13.782;2023-04-25T00:43:00;99502.44;;;9.91;74.23
33506;BME280;19843;51.040;13.782;2023-04-25T00:45:28;99502.00;;;9.45;75.28
33506;BME280;19843;51.040;13.782;2023-04-25T00:47:57;99493.16;;;9.87;73.88
33506;BME280;19843;51.040;13.782;2023-04-25T00:50:25;99485.00;;;9.78;73.63
33506;BME280;19843;51.040;13.782;2023-04-25T00:52:53;99496.59;;;9.80;73.77
33506;BME280;19843;51.040;13.782;2023-04-25T00:55:21;99490.00;;;9.72;74.25
33506;BME280;19843;51.040;13.782;2023-04-25T00:57:48;99493.72;;;9.48;74.23
33506;BME280;19843;51.040;13.782;2023-04-25T01:00:17;99492.00;;;9.44;74.96
33506;BME280;19843;51.040;13.782;2023-04-25T01:02:45;99488.00;;;9.57;74.65
33506;BME280;19843;51.040;13.782;2023-04-25T01:05:13;99488.50;;;9.47;74.75
33506;BME280;19843;51.040;13.782;2023-04-25T01:07:42;99482.72;;;9.40;74.77
33506;BME280;19843;51.040;13.782;2023-04-25T01:10:10;99486.78;;;9.42;75.15
33506;BME280;19843;51.040;13.782;2023-04-25T01:12:38;99482.03;;;9.15;76.43
33506;BME280;19843;51.040;13.782;2023-04-25T01:15:06;99478.00;;;9.12;75.94
33506;BME280;19843;51.040;13.782;2023-04-25T01:17:34;99478.13;;;9.04;76.73
33506;BME280;19843;51.040;13.782;2023-04-25T01:20:04;99482.84;;;8.75;77.14
33506;BME280;19843;51.040;13.782;2023-04-25T01:22:33;99494.59;;;8.96;77.05
33506;BME280;19843;51.040;13.782;2023-04-25T01:25:01;99483.41;;;8.68;77.26
33506;BME280;19843;51.040;13.782;2023-04-25T01:27:29;99490.00;;;8.88;77.37
33506;BME280;19843;51.040;13.782;2023-04-25T01:29:57;99490.97;;;8.56;78.49
33506;BME280;19843;51.040;13.782;2023-04-25T01:32:25;99495.38;;;8.57;77.49
33506;BME280;19843;51.040;13.782;2023-04-25T01:34:53;99488.41;;;8.63;77.47
33506;BME280;19843;51.040;13.782;2023-04-25T01:37:21;99486.91;;;8.65;77.02
33506;BME280;19843;51.040;13.782;2023-04-25T01:39:49;99482.28;;;8.69;76.64
33506;BME280;19843;51.040;13.782;2023-04-25T01:42:17;99481.09;;;8.34;77.94
33506;BME280;19843;51.040;13.782;2023-04-25T01:44:45;99486.22;;;8.32;77.06
33506;BME280;19843;51.040;13.782;2023-04-25T01:47:12;99482.19;;;8.41;77.64
33506;BME280;19843;51.040;13.782;2023-04-25T01:49:40;99491.47;;;8.45;76.96
33506;BME280;19843;51.040;13.782;2023-04-25T01:52:07;99487.13;;;8.24;77.60
33506;BME280;19843;51.040;13.782;2023-04-25T01:54:34;99481.25;;;8.37;77.15
33506;BME280;19843;51.040;13.782;2023-04-25T01:57:03;99484.22;;;8.20;77.27
33506;BME280;19843;51.040;13.782;2023-04-25T01:59:31;99489.09;;;8.23;77.16
33506;BME280;19843;51.040;13.782;2023-04-25T02:01:58;99484.81;;;8.13;77.33
33506;BME280;19843;51.040;13.782;2023-04-25T02:04:25;99486.06;;;8.16;77.03
33506;BME280;19843;51.040;13.782;2023-04-25T02:06:53;99486.19;;;7.95;78.40
33506;BME280;19843;51.040;13.782;2023-04-25T02:09:20;99484.91;;;8.05;77.23
33506;BME280;19843;51.040;13.782;2023-04-25T02:11:48;99490.94;;;8.19;76.61
33506;BME280;19843;51.040;13.782;2023-04-25T02:14:17;99480.28;;;8.21;76.84
33506;BME280;19843;51.040;13.782;2023-04-25T02:16:44;99481.78;;;8.06;76.57
33506;BME280;19843;51.040;13.782;2023-04-25T02:19:12;99486.53;;;8.06;76.87
33506;BME280;19843;51.040;13.782;2023-04-25T02:21:40;99490.84;;;8.03;76.90
33506;BME280;19843;51.040;13.782;2023-04-25T02:24:08;99479.34;;;7.92;76.80
33506;BME280;19843;51.040;13.782;2023-04-25T02:26:35;99473.94;;;8.08;76.63
33506;BME280;19843;51.040;13.782;2023-04-25T02:29:03;99479.00;;;8.06;76.57
33506;BME280;19843;51.040;13.782;2023-04-25T02:31:31;99482.25;;;7.96;77.03
33506;BME280;19843;51.040;13.782;2023-04-25T02:33:59;99477.84;;;7.95;77.13
33506;BME280;19843;51.040;13.782;2023-04-25T02:36:26;99474.22;;;7.82;77.52
33506;BME280;19843;51.040;13.782;2023-04-25T02:38:56;99482.47;;;7.91;77.35
33506;BME280;19843;51.040;13.782;2023-04-25T02:41:23;99479.56;;;7.75;77.99
33506;BME280;19843;51.040;13.782;2023-04-25T02:43:50;99480.94;;;7.81;78.05
33506;BME280;19843;51.040;13.782;2023-04-25T02:46:18;99473.63;;;7.64;78.44
33506;BME280;19843;51.040;13.782;2023-04-25T02:49:04;99481.03;;;7.73;78.46
33506;BME280;19843;51.040;13.782;2023-04-25T02:51:32;99475.59;;;7.76;78.42
33506;BME280;19843;51.040;13.782;2023-04-25T02:53:59;99471.31;;;7.66;78.57
33506;BME280;19843;51.040;13.782;2023-04-25T02:56:27;99476.91;;;7.79;77.83
33506;BME280;19843;51.040;13.782;2023-04-25T02:58:54;99481.63;;;7.78;77.56
33506;BME280;19843;51.040;13.782;2023-04-25T03:01:21;99485.84;;;7.51;78.52
33506;BME280;19843;51.040;13.782;2023-04-25T03:03:49;99488.19;;;7.61;79.06
33506;BME280;19843;51.040;13.782;2023-04-25T03:06:18;99484.69;;;7.52;78.73
33506;BME280;19843;51.040;13.782;2023-04-25T03:08:46;99480.31;;;7.51;79.67
33506;BME280;19843;51.040;13.782;2023-04-25T03:11:13;99481.75;;;7.36;79.68
33506;BME280;19843;51.040;13.782;2023-04-25T03:13:40;99478.97;;;7.36;80.04
33506;BME280;19843;51.040;13.782;2023-04-25T03:16:08;99470.69;;;7.49;79.91
33506;BME280;19843;51.040;13.782;2023-04-25T03:18:36;99472.63;;;7.48;79.11
33506;BME280;19843;51.040;13.782;2023-04-25T03:21:03;99470.81;;;7.19;80.64
33506;BME280;19843;51.040;13.782;2023-04-25T03:23:32;99474.38;;;7.19;81.36
33506;BME280;19843;51.040;13.782;2023-04-25T03:25:59;99479.88;;;7.07;81.80
33506;BME280;19843;51.040;13.782;2023-04-25T03:28:27;99484.38;;;7.00;81.65
33506;BME280;19843;51.040;13.782;2023-04-25T03:30:55;99480.56;;;7.04;82.21
33506;BME280;19843;51.040;13.782;2023-04-25T03:33:22;99479.28;;;7.02;81.88
33506;BME280;19843;51.040;13.782;2023-04-25T03:35:50;99480.28;;;6.97;82.55
33506;BME280;19843;51.040;13.782;2023-04-25T03:38:17;99480.69;;;6.87;83.33
33506;BME280;19843;51.040;13.782;2023-04-25T03:40:46;99480.63;;;6.96;82.78
33506;BME280;19843;51.040;13.782;2023-04-25T03:43:13;99479.47;;;6.97;82.54
33506;BME280;19843;51.040;13.782;2023-04-25T03:45:41;99473.25;;;7.00;81.69
33506;BME280;19843;51.040;13.782;2023-04-25T03:48:09;99477.00;;;7.04;81.51
33506;BME280;19843;51.040;13.782;2023-04-25T03:50:36;99475.63;;;7.10;82.11
33506;BME280;19843;51.040;13.782;2023-04-25T03:53:04;99478.59;;;7.05;82.76
33506;BME280;19843;51.040;13.782;2023-04-25T03:55:31;99482.94;;;6.93;82.84
33506;BME280;19843;51.040;13.782;2023-04-25T03:58:00;99478.28;;;6.85;83.36
33506;BME280;19843;51.040;13.782;2023-04-25T04:00:27;99478.75;;;6.66;84.04
33506;BME280;19843;51.040;13.782;2023-04-25T04:02:55;99479.34;;;6.93;83.26
33506;BME280;19843;51.040;13.782;2023-04-25T04:05:22;99472.38;;;7.08;82.95
33506;BME280;19843;51.040;13.782;2023-04-25T04:07:50;99479.81;;;7.16;82.32
33506;BME280;19843;51.040;13.782;2023-04-25T04:10:17;99485.56;;;7.11;82.08
33506;BME280;19843;51.040;13.782;2023-04-25T04:12:45;99488.97;;;6.96;82.65
33506;BME280;19843;51.040;13.782;2023-04-25T04:15:14;99487.66;;;7.14;81.49
33506;BME280;19843;51.040;13.782;2023-04-25T04:17:41;99481.78;;;7.15;81.69
33506;BME280;19843;51.040;13.782;2023-04-25T04:20:09;99484.00;;;7.22;81.10
33506;BME280;19843;51.040;13.782;2023-04-25T04:22:37;99479.31;;;7.35;81.03
33506;BME280;19843;51.040;13.782;2023-04-25T04:25:05;99486.91;;;7.26;81.16
33506;BME280;19843;51.040;13.782;2023-04-25T04:27:33;99480.53;;;7.25;82.64
33506;BME280;19843;51.040;13.782;2023-04-25T04:30:00;99480.94;;;7.36;81.88
33506;BME280;19843;51.040;13.782;2023-04-25T04:32:30;99488.06;;;7.58;81.05
33506;BME280;19843;51.040;13.782;2023-04-25T04:34:58;99490.97;;;7.61;79.68
33506;BME280;19843;51.040;13.782;2023-04-25T04:37:26;99492.63;;;7.75;79.83
33506;BME280;19843;51.040;13.782;2023-04-25T04:39:53;99499.03;;;7.54;80.03
33506;BME280;19843;51.040;13.782;2023-04-25T04:42:21;99508.56;;;7.32;80.45
33506;BME280;19843;51.040;13.782;2023-04-25T04:44:50;99498.16;;;7.62;80.64
33506;BME280;19843;51.040;13.782;2023-04-25T04:47:18;99509.84;;;7.68;78.79
33506;BME280;19843;51.040;13.782;2023-04-25T04:49:47;99508.28;;;7.91;78.09
33506;BME280;19843;51.040;13.782;2023-04-25T04:52:15;99501.25;;;8.18;77.65
33506;BME280;19843;51.040;13.782;2023-04-25T04:54:42;99497.34;;;9.21;73.63
33506;BME280;19843;51.040;13.782;2023-04-25T04:57:10;99495.94;;;9.71;69.50
33506;BME280;19843;51.040;13.782;2023-04-25T04:59:37;99503.06;;;9.40;69.93
33506;BME280;19843;51.040;13.782;2023-04-25T05:02:05;99504.59;;;8.97;71.57
33506;BME280;19843;51.040;13.782;2023-04-25T05:04:32;99513.66;;;8.82;70.61
33506;BME280;19843;51.040;13.782;2023-04-25T05:07:01;99510.84;;;9.35;69.56
33506;BME280;19843;51.040;13.782;2023-04-25T05:09:29;99511.81;;;9.27;69.84
33506;BME280;19843;51.040;13.782;2023-04-25T05:11:56;99511.97;;;9.06;70.90
33506;BME280;19843;51.040;13.782;2023-04-25T05:14:24;99510.34;;;9.45;69.71
33506;BME280;19843;51.040;13.782;2023-04-25T05:16:51;99499.03;;;8.97;71.10
33506;BME280;19843;51.040;13.782;2023-04-25T05:19:19;99515.09;;;9.44;69.70
33506;BME280;19843;51.040;13.782;2023-04-25T05:21:46;99508.47;;;9.49;69.85
33506;BME280;19843;51.040;13.782;2023-04-25T05:24:15;99511.31;;;9.37;69.44
33506;BME280;19843;51.040;13.782;2023-04-25T05:26:42;99519.53;;;9.05;70.00
33506;BME280;19843;51.040;13.782;2023-04-25T05:29:09;99509.44;;;9.85;69.12
33506;BME280;19843;51.040;13.782;2023-04-25T05:31:37;99509.69;;;9.64;69.17
33506;BME280;19843;51.040;13.782;2023-04-25T05:34:04;99506.50;;;9.49;69.75
33506;BME280;19843;51.040;13.782;2023-04-25T05:36:32;99508.75;;;9.04;69.27
33506;BME280;19843;51.040;13.782;2023-04-25T05:38:59;99508.72;;;9.44;68.10
33506;BME280;19843;51.040;13.782;2023-04-25T05:41:28;99501.31;;;9.08;68.87
33506;BME280;19843;51.040;13.782;2023-04-25T05:43:55;99508.78;;;9.32;66.90
33506;BME280;19843;51.040;13.782;2023-04-25T05:46:23;99507.38;;;8.97;65.75
33506;BME280;19843;51.040;13.782;2023-04-25T05:48:51;99511.72;;;9.23;65.93
33506;BME280;19843;51.040;13.782;2023-04-25T05:51:18;99510.25;;;9.41;64.94
33506;BME280;19843;51.040;13.782;2023-04-25T05:53:46;99520.72;;;9.88;64.03
33506;BME280;19843;51.040;13.782;2023-04-25T05:56:13;99516.50;;;9.66;62.42
33506;BME280;19843;51.040;13.782;2023-04-25T05:58:42;99518.44;;;9.78;61.25
33506;BME280;19843;51.040;13.782;2023-04-25T06:01:10;99512.94;;;10.25;63.33
33506;BME280;19843;51.040;13.782;2023-04-25T06:03:37;99514.69;;;10.18;62.49
33506;BME280;19843;51.040;13.782;2023-04-25T06:06:05;99515.00;;;9.69;63.10
33506;BME280;19843;51.040;13.782;2023-04-25T06:08:33;99519.56;;;9.61;63.26
33506;BME280;19843;51.040;13.782;2023-04-25T06:11:01;99518.78;;;9.48;62.96
33506;BME280;19843;51.040;13.782;2023-04-25T06:13:28;99520.72;;;9.88;62.57
33506;BME280;19843;51.040;13.782;2023-04-25T06:15:57;99520.19;;;9.55;62.48
33506;BME280;19843;51.040;13.782;2023-04-25T06:18:24;99517.06;;;9.72;62.73
33506;BME280;19843;51.040;13.782;2023-04-25T06:20:52;99524.19;;;10.45;61.29
33506;BME280;19843;51.040;13.782;2023-04-25T06:23:19;99527.63;;;9.94;61.38
33506;BME280;19843;51.040;13.782;2023-04-25T06:25:46;99515.84;;;9.85;62.03
33506;BME280;19843;51.040;13.782;2023-04-25T06:28:14;99511.16;;;9.89;61.69
33506;BME280;19843;51.040;13.782;2023-04-25T06:30:41;99517.88;;;10.48;61.74
33506;BME280;19843;51.040;13.782;2023-04-25T06:33:10;99520.72;;;10.20;60.87
33506;BME280;19843;51.040;13.782;2023-04-25T06:35:37;99530.16;;;10.15;61.10
33506;BME280;19843;51.040;13.782;2023-04-25T06:38:05;99523.78;;;10.78;59.48
33506;BME280;19843;51.040;13.782;2023-04-25T06:40:32;99512.31;;;11.18;58.83
33506;BME280;19843;51.040;13.782;2023-04-25T06:43:00;99519.53;;;10.05;59.28
33506;BME280;19843;51.040;13.782;2023-04-25T06:45:27;99528.75;;;10.21;60.11
33506;BME280;19843;51.040;13.782;2023-04-25T06:47:54;99525.16;;;10.52;58.68
33506;BME280;19843;51.040;13.782;2023-04-25T06:50:23;99528.38;;;10.70;59.05
33506;BME280;19843;51.040;13.782;2023-04-25T06:52:51;99512.72;;;10.66;58.50
33506;BME280;19843;51.040;13.782;2023-04-25T06:55:18;99525.78;;;10.46;58.79
33506;BME280;19843;51.040;13.782;2023-04-25T06:57:46;99518.13;;;10.11;59.32
33506;BME280;19843;51.040;13.782;2023-04-25T07:00:14;99515.53;;;10.34;58.99
33506;BME280;19843;51.040;13.782;2023-04-25T07:02:41;99517.91;;;10.67;58.79
33506;BME280;19843;51.040;13.782;2023-04-25T07:05:09;99520.25;;;11.16;57.78
33506;BME280;19843;51.040;13.782;2023-04-25T07:07:38;99517.81;;;11.92;55.74
33506;BME280;19843;51.040;13.782;2023-04-25T07:10:06;99514.38;;;11.21;57.00
33506;BME280;19843;51.040;13.782;2023-04-25T07:12:34;99517.72;;;10.76;57.52
33506;BME280;19843;51.040;13.782;2023-04-25T07:15:01;99519.34;;;10.93;58.59
33506;BME280;19843;51.040;13.782;2023-04-25T07:17:32;99528.38;;;11.06;57.68
33506;BME280;19843;51.040;13.782;2023-04-25T07:20:00;99515.09;;;11.18;57.72
33506;BME280;19843;51.040;13.782;2023-04-25T07:22:30;99517.88;;;11.18;55.95
33506;BME280;19843;51.040;13.782;2023-04-25T07:24:58;99528.28;;;10.83;57.07
33506;BME280;19843;51.040;13.782;2023-04-25T07:27:26;99531.88;;;10.67;56.55
33506;BME280;19843;51.040;13.782;2023-04-25T07:29:53;99523.25;;;11.27;55.65
33506;BME280;19843;51.040;13.782;2023-04-25T07:32:21;99516.31;;;10.66;56.41
33506;BME280;19843;51.040;13.782;2023-04-25T07:34:48;99527.66;;;11.28;55.14
33506;BME280;19843;51.040;13.782;2023-04-25T07:37:17;99522.09;;;11.47;55.62
33506;BME280;19843;51.040;13.782;2023-04-25T07:39:45;99533.97;;;10.70;55.98
33506;BME280;19843;51.040;13.782;2023-04-25T07:42:14;99527.00;;;10.80;55.18
33506;BME280;19843;51.040;13.782;2023-04-25T07:44:42;99515.09;;;11.57;53.52
33506;BME280;19843;51.040;13.782;2023-04-25T07:47:09;99523.88;;;11.36;55.67
33506;BME280;19843;51.040;13.782;2023-04-25T07:49:37;99525.03;;;11.16;55.96
33506;BME280;19843;51.040;13.782;2023-04-25T07:52:05;99518.44;;;11.82;54.82
33506;BME280;19843;51.040;13.782;2023-04-25T07:54:33;99519.88;;;11.18;55.59
33506;BME280;19843;51.040;13.782;2023-04-25T07:57:00;99520.31;;;12.20;51.66
33506;BME280;19843;51.040;13.782;2023-04-25T07:59:29;99525.84;;;12.17;51.17
33506;BME280;19843;51.040;13.782;2023-04-25T08:01:57;99530.63;;;12.16;51.55
33506;BME280;19843;51.040;13.782;2023-04-25T08:04:24;99522.06;;;11.67;53.86
33506;BME280;19843;51.040;13.782;2023-04-25T08:06:53;99528.53;;;11.90;52.41
33506;BME280;19843;51.040;13.782;2023-04-25T08:09:20;99536.91;;;12.55;52.15
33506;BME280;19843;51.040;13.782;2023-04-25T08:11:48;99530.91;;;13.10;49.21
33506;BME280;19843;51.040;13.782;2023-04-25T08:14:16;99534.22;;;11.94;52.66
33506;BME280;19843;51.040;13.782;2023-04-25T08:16:44;99539.88;;;11.97;52.61
33506;BME280;19843;51.040;13.782;2023-04-25T08:19:12;99542.72;;;11.82;53.39
33506;BME280;19843;51.040;13.782;2023-04-25T08:21:39;99536.22;;;12.16;51.77
33506;BME280;19843;51.040;13.782;2023-04-25T08:24:07;99529.50;;;11.78;52.66
33506;BME280;19843;51.040;13.782;2023-04-25T08:26:34;99532.09;;;11.48;54.55
33506;BME280;19843;51.040;13.782;2023-04-25T08:29:03;99536.63;;;11.18;55.01
33506;BME280;19843;51.040;13.782;2023-04-25T08:31:31;99545.19;;;11.64;54.64
33506;BME280;19843;51.040;13.782;2023-04-25T08:34:00;99534.72;;;12.68;53.14
33506;BME280;19843;51.040;13.782;2023-04-25T08:36:28;99545.06;;;13.47;51.04
33506;BME280;19843;51.040;13.782;2023-04-25T08:39:05;99545.97;;;12.03;53.25
33506;BME280;19843;51.040;13.782;2023-04-25T08:41:34;99546.13;;;11.91;53.36
33506;BME280;19843;51.040;13.782;2023-04-25T08:44:03;99553.78;;;11.94;54.11
33506;BME280;19843;51.040;13.782;2023-04-25T08:46:30;99554.81;;;11.47;54.33
33506;BME280;19843;51.040;13.782;2023-04-25T08:49:01;99564.25;;;11.77;55.28
33506;BME280;19843;51.040;13.782;2023-04-25T08:51:31;99565.09;;;12.20;54.34
33506;BME280;19843;51.040;13.782;2023-04-25T08:54:07;99564.84;;;11.13;56.45
33506;BME280;19843;51.040;13.782;2023-04-25T08:56:56;99569.66;;;11.32;57.15
33506;BME280;19843;51.040;13.782;2023-04-25T08:59:24;99572.09;;;10.82;56.29
33506;BME280;19843;51.040;13.782;2023-04-25T09:01:52;99578.25;;;11.23;57.38
33506;BME280;19843;51.040;13.782;2023-04-25T09:04:20;99576.88;;;11.71;55.32
33506;BME280;19843;51.040;13.782;2023-04-25T09:06:48;99567.00;;;11.39;56.39
33506;BME280;19843;51.040;13.782;2023-04-25T09:09:15;99585.47;;;11.43;56.01
33506;BME280;19843;51.040;13.782;2023-04-25T09:11:43;99585.72;;;11.35;55.95
33506;BME280;19843;51.040;13.782;2023-04-25T09:14:12;99579.28;;;12.31;56.01
33506;BME280;19843;51.040;13.782;2023-04-25T09:16:59;99582.53;;;12.14;55.51
33506;BME280;19843;51.040;13.782;2023-04-25T09:19:30;99589.34;;;12.36;53.54
33506;BME280;19843;51.040;13.782;2023-04-25T09:22:06;99585.47;;;12.21;53.61
33506;BME280;19843;51.040;13.782;2023-04-25T09:24:35;99592.56;;;11.57;55.52
33506;BME280;19843;51.040;13.782;2023-04-25T09:27:04;99604.91;;;11.56;55.86
33506;BME280;19843;51.040;13.782;2023-04-25T09:29:33;99612.22;;;10.74;57.20
33506;BME280;19843;51.040;13.782;2023-04-25T09:32:17;99608.84;;;11.16;57.87
33506;BME280;19843;51.040;13.782;2023-04-25T09:34:49;99617.75;;;11.06;58.37
33506;BME280;19843;51.040;13.782;2023-04-25T09:37:18;99625.81;;;10.75;58.56
33506;BME280;19843;51.040;13.782;2023-04-25T09:39:47;99625.16;;;10.50;56.11
33506;BME280;19843;51.040;13.782;2023-04-25T09:42:15;99617.25;;;10.68;57.03
33506;BME280;19843;51.040;13.782;2023-04-25T09:44:44;99628.50;;;10.56;58.89
33506;BME280;19843;51.040;13.782;2023-04-25T09:47:12;99620.13;;;10.72;58.97
33506;BME280;19843;51.040;13.782;2023-04-25T09:49:42;99629.72;;;11.06;59.76
33506;BME280;19843;51.040;13.782;2023-04-25T09:52:15;99629.72;;;11.06;59.07
33506;BME280;19843;51.040;13.782;2023-04-25T09:54:44;99639.28;;;10.42;59.15
33506;BME280;19843;51.040;13.782;2023-04-25T09:57:13;99635.69;;;10.25;60.56
33506;BME280;19843;51.040;13.782;2023-04-25T09:59:44;99636.59;;;10.17;60.85
33506;BME280;19843;51.040;13.782;2023-04-25T10:02:12;99640.31;;;10.65;59.91
33506;BME280;19843;51.040;13.782;2023-04-25T10:04:41;99633.38;;;10.59;59.48
33506;BME280;19843;51.040;13.782;2023-04-25T10:07:09;99635.50;;;10.82;59.59
33506;BME280;19843;51.040;13.782;2023-04-25T10:09:39;99626.88;;;11.02;59.62
33506;BME280;19843;51.040;13.782;2023-04-25T10:12:07;99639.59;;;11.35;58.69
33506;BME280;19843;51.040;13.782;2023-04-25T10:14:35;99626.25;;;11.64;58.70
33506;BME280;19843;51.040;13.782;2023-04-25T10:17:03;99631.56;;;12.27;56.95
33506;BME280;19843;51.040;13.782;2023-04-25T10:19:31;99644.16;;;11.78;56.86
33506;BME280;19843;51.040;13.782;2023-04-25T10:22:07;99648.47;;;11.92;54.73
33506;BME280;19843;51.040;13.782;2023-04-25T10:24:37;99641.38;;;12.60;54.39
33506;BME280;19843;51.040;13.782;2023-04-25T10:27:05;99650.94;;;12.16;56.74
33506;BME280;19843;51.040;13.782;2023-04-25T10:29:34;99646.22;;;12.01;57.37
33506;BME280;19843;51.040;13.782;2023-04-25T10:32:02;99645.94;;;12.25;56.44
33506;BME280;19843;51.040;13.782;2023-04-25T10:34:40;99642.03;;;12.53;56.22
33506;BME280;19843;51.040;13.782;2023-04-25T10:37:09;99645.16;;;11.70;58.12
33506;BME280;19843;51.040;13.782;2023-04-25T10:39:40;99653.97;;;11.72;60.66
33506;BME280;19843;51.040;13.782;2023-04-25T10:42:08;99646.34;;;11.34;59.03
33506;BME280;19843;51.040;13.782;2023-04-25T10:44:37;99650.72;;;11.86;57.30
33506;BME280;19843;51.040;13.782;2023-04-25T10:47:06;99648.97;;;11.97;56.22
33506;BME280;19843;51.040;13.782;2023-04-25T10:49:36;99650.56;;;12.18;54.99
33506;BME280;19843;51.040;13.782;2023-04-25T10:52:17;99651.13;;;11.69;56.90
33506;BME280;19843;51.040;13.782;2023-04-25T10:54:52;99657.41;;;12.01;56.98
33506;BME280;19843;51.040;13.782;2023-04-25T10:57:27;99657.94;;;11.17;59.07
33506;BME280;19843;51.040;13.782;2023-04-25T10:59:58;99654.34;;;11.00;59.39
33506;BME280;19843;51.040;13.782;2023-04-25T11:02:27;99659.97;;;11.20;58.93
33506;BME280;19843;51.040;13.782;2023-04-25T11:04:55;99669.56;;;11.03;59.90
33506;BME280;19843;51.040;13.782;2023-04-25T11:07:28;99665.03;;;10.35;62.10
33506;BME280;19843;51.040;13.782;2023-04-25T11:10:03;99684.50;;;10.63;62.81
33506;BME280;19843;51.040;13.782;2023-04-25T11:12:31;99673.25;;;10.91;61.49
33506;BME280;19843;51.040;13.782;2023-04-25T11:15:00;99685.94;;;10.01;63.56
33506;BME280;19843;51.040;13.782;2023-04-25T11:17:28;99689.31;;;10.07;64.50
33506;BME280;19843;51.040;13.782;2023-04-25T11:19:56;99682.97;;;10.66;63.30
33506;BME280;19843;51.040;13.782;2023-04-25T11:22:24;99693.25;;;10.77;62.81
33506;BME280;19843;51.040;13.782;2023-04-25T11:24:51;99684.53;;;10.79;63.36
33506;BME280;19843;51.040;13.782;2023-04-25T11:27:21;99697.56;;;10.75;63.32
33506;BME280;19843;51.040;13.782;2023-04-25T11:29:50;99714.06;;;10.80;64.82
33506;BME280;19843;51.040;13.782;2023-04-25T11:32:18;99719.56;;;10.20;67.20
33506;BME280;19843;51.040;13.782;2023-04-25T11:34:47;99711.69;;;10.10;67.19
33506;BME280;19843;51.040;13.782;2023-04-25T11:37:14;99715.69;;;10.81;65.11
33506;BME280;19843;51.040;13.782;2023-04-25T11:39:43;99719.22;;;11.25;63.68
33506;BME280;19843;51.040;13.782;2023-04-25T11:42:12;99721.63;;;10.64;64.81
33506;BME280;19843;51.040;13.782;2023-04-25T11:44:41;99722.34;;;11.40;62.48
33506;BME280;19843;51.040;13.782;2023-04-25T11:47:08;99716.22;;;10.71;63.59
33506;BME280;19843;51.040;13.782;2023-04-25T11:49:36;99729.34;;;10.70;61.80
33506;BME280;19843;51.040;13.782;2023-04-25T11:52:06;99738.75;;;10.78;63.52
33506;BME280;19843;51.040;13.782;2023-04-25T11:54:35;99726.34;;;11.07;61.12
33506;BME280;19843;51.040;13.782;2023-04-25T11:57:04;99725.06;;;10.73;61.51
33506;BME280;19843;51.040;13.782;2023-04-25T11:59:31;99729.28;;;11.14;59.90
33506;BME280;19843;51.040;13.782;2023-04-25T12:02:00;99734.97;;;11.18;58.42
33506;BME280;19843;51.040;13.782;2023-04-25T12:04:30;99740.56;;;11.49;56.43
33506;BME280;19843;51.040;13.782;2023-04-25T12:06:58;99737.94;;;10.93;59.06
33506;BME280;19843;51.040;13.782;2023-04-25T12:09:29;99730.53;;;11.01;58.73
33506;BME280;19843;51.040;13.782;2023-04-25T12:11:58;99729.03;;;11.19;57.34
33506;BME280;19843;51.040;13.782;2023-04-25T12:14:29;99732.38;;;10.93;56.50
33506;BME280;19843;51.040;13.782;2023-04-25T12:17:00;99722.63;;;10.87;58.05
33506;BME280;19843;51.040;13.782;2023-04-25T12:19:32;99741.00;;;11.04;59.20
33506;BME280;19843;51.040;13.782;2023-04-25T12:22:00;99731.00;;;10.43;61.20
33506;BME280;19843;51.040;13.782;2023-04-25T12:24:29;99732.03;;;10.67;61.23
33506;BME280;19843;51.040;13.782;2023-04-25T12:26:59;99737.16;;;11.75;58.80
33506;BME280;19843;51.040;13.782;2023-04-25T12:29:29;99733.03;;;11.53;58.42
33506;BME280;19843;51.040;13.782;2023-04-25T12:32:15;99732.91;;;10.83;56.58
33506;BME280;19843;51.040;13.782;2023-04-25T12:34:43;99725.44;;;11.03;56.68
33506;BME280;19843;51.040;13.782;2023-04-25T12:37:11;99729.81;;;11.87;55.21
33506;BME280;19843;51.040;13.782;2023-04-25T12:39:38;99739.25;;;11.63;54.91
33506;BME280;19843;51.040;13.782;2023-04-25T12:42:06;99736.78;;;10.94;55.07
33506;BME280;19843;51.040;13.782;2023-04-25T12:44:37;99732.41;;;11.60;54.57
33506;BME280;19843;51.040;13.782;2023-04-25T12:47:05;99740.78;;;12.11;53.26
33506;BME280;19843;51.040;13.782;2023-04-25T12:49:34;99738.28;;;12.87;51.72
33506;BME280;19843;51.040;13.782;2023-04-25T12:52:01;99726.94;;;12.80;50.95
33506;BME280;19843;51.040;13.782;2023-04-25T12:54:29;99729.22;;;12.32;50.99
33506;BME280;19843;51.040;13.782;2023-04-25T12:56:57;99724.25;;;11.71;53.05
33506;BME280;19843;51.040;13.782;2023-04-25T12:59:25;99738.47;;;11.46;52.31
33506;BME280;19843;51.040;13.782;2023-04-25T13:01:53;99739.94;;;11.09;53.90